Dades de l'estació automàtica Montsec d'Ares (1.571 m)
Resum diari
21:30 TU| Temperatura mitjana | 7.3 °C | |
|---|---|---|
| Temperatura màxima | 11.9 °C | 11:54 TU |
| Temperatura mínima | 3.3 °C | 17:32 TU |
| Humitat relativa mitjana | 92% | |
| Precipitació acumulada | 11.5 mm | |
| Ratxa màxima del vent (10 m) | 67.3 km/h - 337º | 17:24 TU |
| Irradiació solar global | 13.3 MJ/m2 | |
El tram horari està expressat en Temps Universal (TU). Cal sumar una hora en horari d'hivern i dues en horari d'estiu per passar a l'hora oficial.
Montsec d'Ares (1.571 m)
| Municipi | Sant Esteve de la Sarga |
|---|---|
| Comarca | Pallars Jussà |
| Altitud | 1571 m |
| Data alta | 17.06.2003 |
| Estat actual | Operativa |
| Període TU |
TM °C |
TX °C |
TN °C |
HRM % |
PPT mm |
VVM (10 m) km/h |
DVM (10 m) graus |
VVX (10 m) km/h |
PM hPa |
RS W/m2 |
|---|---|---|---|---|---|---|---|---|---|---|
| 00:00 - 00:30 | 6.2 | 6.3 | 6.1 | 100 | 0.0 | 3.2 | 83 | 7.2 | 847.4 | 0 |
| 00:30 - 01:00 | 6.1 | 6.2 | 6.1 | 100 | 0.0 | 6.8 | 166 | 12.6 | 847.4 | 0 |
| 01:00 - 01:30 | 6.1 | 6.2 | 6.1 | 100 | 0.0 | 8.6 | 129 | 17.6 | 847.2 | 0 |
| 01:30 - 02:00 | 6.5 | 6.8 | 6.2 | 98 | 0.0 | 5.4 | 107 | 12.2 | 847.1 | 0 |
| 02:00 - 02:30 | 6.4 | 6.7 | 6.2 | 96 | 0.0 | 4.0 | 132 | 10.8 | 847.0 | 0 |
| 02:30 - 03:00 | 6.3 | 6.6 | 6.1 | 98 | 0.0 | 6.8 | 173 | 16.9 | 847.1 | 0 |
| 03:00 - 03:30 | 5.9 | 6.2 | 5.8 | 100 | 1.5 | 16.2 | 182 | 36.7 | 847.1 | 0 |
| 03:30 - 04:00 | 5.7 | 5.8 | 5.6 | 100 | 0.6 | 10.4 | 155 | 25.9 | 846.9 | 0 |
| 04:00 - 04:30 | 5.7 | 6.1 | 5.4 | 100 | 0.0 | 6.8 | 356 | 15.8 | 846.7 | 0 |
| 04:30 - 05:00 | 6.3 | 7.2 | 5.9 | 95 | 0.0 | 11.5 | 125 | 20.2 | 846.6 | 1 |
| 05:00 - 05:30 | 7.1 | 7.3 | 6.8 | 83 | 0.0 | 10.1 | 234 | 14.4 | 846.7 | 21 |
| 05:30 - 06:00 | 6.9 | 7.5 | 6.6 | 88 | 0.0 | 5.0 | 219 | 9.7 | 846.7 | 107 |
| 06:00 - 06:30 | 7.8 | 8.2 | 7.1 | 85 | 0.0 | 5.0 | 184 | 7.9 | 846.8 | 209 |
| 06:30 - 07:00 | 7.5 | 7.8 | 7.1 | 94 | 0.0 | 6.8 | 147 | 10.8 | 847.0 | 213 |
| 07:00 - 07:30 | 7.8 | 9.1 | 7.1 | 98 | 0.0 | 4.0 | 153 | 9.0 | 847.0 | 279 |
| 07:30 - 08:00 | 8.6 | 8.9 | 7.8 | 95 | 0.0 | 4.3 | 180 | 13.7 | 847.2 | 298 |
| 08:00 - 08:30 | 9.4 | 10.1 | 8.2 | 94 | 0.0 | 5.0 | 174 | 11.5 | 847.2 | 579 |
| 08:30 - 09:00 | 9.7 | 10.7 | 9.2 | 94 | 0.0 | 5.8 | 195 | 14.8 | 847.1 | 473 |
| 09:00 - 09:30 | 9.0 | 9.6 | 8.5 | 90 | 0.0 | 4.0 | 212 | 9.7 | 847.0 | 214 |
| 09:30 - 10:00 | 9.8 | 10.2 | 9.2 | 90 | 0.0 | 8.3 | 201 | 19.1 | 847.0 | 576 |
| 10:00 - 10:30 | 9.2 | 9.8 | 8.8 | 92 | 0.0 | 8.6 | 199 | 19.4 | 847.0 | 356 |
| 10:30 - 11:00 | 10.2 | 11.1 | 9.0 | 85 | 0.0 | 8.3 | 195 | 19.1 | 846.9 | 688 |
| 11:00 - 11:30 | 10.3 | 10.9 | 10.0 | 86 | 0.0 | 9.7 | 200 | 21.2 | 846.8 | 482 |
| 11:30 - 12:00 | 11.0 | 11.9 | 10.2 | 75 | 0.0 | 11.9 | 190 | 25.6 | 846.5 | 750 |
| 12:00 - 12:30 | 9.8 | 10.5 | 9.1 | 81 | 0.0 | 17.3 | 206 | 34.9 | 846.3 | 251 |
| 12:30 - 13:00 | 8.9 | 9.2 | 8.5 | 90 | 0.0 | 16.9 | 205 | 32.4 | 846.0 | 159 |
| 13:00 - 13:30 | 8.7 | 9.1 | 8.5 | 93 | 0.1 | 14.8 | 203 | 29.9 | 845.8 | 245 |
| 13:30 - 14:00 | 8.6 | 8.8 | 8.3 | 93 | 0.0 | 16.2 | 200 | 31.7 | 845.5 | 293 |
| 14:00 - 14:30 | 8.6 | 9.0 | 8.4 | 90 | 0.0 | 14.8 | 209 | 27.4 | 845.4 | 199 |
| 14:30 - 15:00 | 8.6 | 8.8 | 8.3 | 92 | 0.0 | 13.3 | 212 | 27.4 | 845.3 | 208 |
| 15:00 - 15:30 | 9.3 | 10.2 | 8.5 | 85 | 0.0 | 14.0 | 210 | 26.3 | 845.3 | 418 |
| 15:30 - 16:00 | 9.0 | 9.7 | 8.6 | 91 | 0.0 | 13.3 | 219 | 25.6 | 845.3 | 184 |
| 16:00 - 16:30 | 8.5 | 8.7 | 8.2 | 100 | 0.2 | 11.5 | 250 | 24.8 | 845.3 | 114 |
| 16:30 - 17:00 | 7.9 | 8.3 | 6.7 | 100 | 1.8 | 15.1 | 238 | 35.6 | 845.2 | 47 |
| 17:00 - 17:30 | 4.7 | 6.4 | 3.3 | 100 | 5.1 | 37.8 | 338 | 67.3 | 845.0 | 11 |
| 17:30 - 18:00 | 3.3 | 3.4 | 3.3 | 100 | 0.0 | 49.3 | 338 | 62.3 | 844.8 | 5 |
| 18:00 - 18:30 | 3.9 | 4.8 | 3.4 | 100 | 1.8 | 33.1 | 304 | 52.9 | 845.6 | 2 |
| 18:30 - 19:00 | 5.2 | 5.9 | 4.8 | 95 | 0.3 | 22.0 | 247 | 33.8 | 845.8 | 14 |
| 19:00 - 19:30 | 6.0 | 6.6 | 5.2 | 85 | 0.1 | 13.7 | 294 | 22.7 | 845.6 | 0 |
| 19:30 - 20:00 | 5.3 | 5.7 | 5.0 | 86 | 0.0 | 15.8 | 354 | 19.8 | 845.6 | 0 |
| 20:00 - 20:30 | 5.5 | 5.7 | 5.2 | 80 | 0.0 | 14.0 | 328 | 19.1 | 845.9 | 0 |
| 20:30 - 21:00 | 5.8 | 6.0 | 5.4 | 76 | 0.0 | 19.1 | 273 | 27.7 | 846.2 | 0 |
| 21:00 - 21:30 | 5.1 | 5.4 | 4.7 | 84 | 0.0 | 22.7 | 258 | 30.2 | 846.2 | 0 |
| 21:30 - 22:00 | 4.4 | 4.7 | 4.1 | 93 | 0.0 | 23.8 | 257 | 30.2 | 846.0 | 0 |
| 22:00 - 22:30 | (s/d) | (s/d) | (s/d) | (s/d) | (s/d) | (s/d) | (s/d) | (s/d) | (s/d) | (s/d) |
Les dades en taronja només han passat un control de qualitat automàtic. Resta pendent la seva validació definitiva.